Ava, Ohio
Current Conditions -  °F | °C
As of 9:53 PM on Friday 31 Oct 2014 (Local Time) from KZZV Reporting Station
Light Rain Light Rain  
Wind Chill: 41°   Ceiling: 3800
Heat Index: 41°   Visibility: 5mi
Dew Point: 39°   Wind: 3mph
Humidity: 93%   Direction: 350°N
Pressure: 29.89"   Gusts: NA
Location:  39.83°N, 81.57°W
Report Text: KZZV 010153Z AUTO 35003KT 5SM -RA BR SCT023 SCT030 OVC038 05/04 A2989 RMK AO2 SLP125 P0003 T00500039
Loading
Personal Weather Stations






























Interactive Weather Map
Tropical Storm Tracking
New forecast layout! Learn more

10-Day Weather Forecast

Advertisements
Track Severe Weather on mobile